createdAt,value
2022-10-17T00:00:47.724Z,8.97
2022-10-17T00:06:12.576Z,9.00
2022-10-17T00:11:19.534Z,8.20
2022-10-17T00:16:26.430Z,7.33
2022-10-17T00:21:29.212Z,7.23
2022-10-17T00:26:32.072Z,9.03
2022-10-17T00:31:35.899Z,7.97
2022-10-17T00:36:38.564Z,8.03
2022-10-17T00:41:41.259Z,8.07
2022-10-17T00:46:43.940Z,7.67
2022-10-17T00:51:49.243Z,8.00
2022-10-17T00:56:54.785Z,8.17
2022-10-17T01:02:00.930Z,7.73
2022-10-17T01:07:03.782Z,7.80
2022-10-17T01:12:10.921Z,9.07
2022-10-17T01:17:19.717Z,8.17
2022-10-17T01:22:28.962Z,7.87
2022-10-17T01:27:31.808Z,7.50
2022-10-17T01:32:40.361Z,7.33
2022-10-17T01:37:58.671Z,7.47
2022-10-17T01:43:07.713Z,6.77
2022-10-17T01:48:37.488Z,7.07
2022-10-17T01:53:43.076Z,7.17
2022-10-17T01:58:51.548Z,7.07
2022-10-17T02:03:55.385Z,8.02
2022-10-17T02:08:58.109Z,7.93
2022-10-17T02:14:06.661Z,7.95
2022-10-17T02:19:25.068Z,7.30
2022-10-17T02:24:38.454Z,7.10
2022-10-17T02:29:53.311Z,6.95
2022-10-17T02:34:56.494Z,7.10
2022-10-17T02:40:00.798Z,7.00
2022-10-17T02:45:03.532Z,6.68
2022-10-17T02:50:06.339Z,7.05
2022-10-17T02:55:18.288Z,7.20
2022-10-17T03:00:23.844Z,6.60
2022-10-17T03:05:28.096Z,7.10
2022-10-17T03:10:31.052Z,6.82
2022-10-17T03:15:34.001Z,6.25
2022-10-17T03:20:36.996Z,6.68
2022-10-17T03:25:39.701Z,6.70
2022-10-17T03:30:42.558Z,7.00
2022-10-17T03:35:45.885Z,6.90
2022-10-17T03:40:55.518Z,6.85
2022-10-17T03:45:59.132Z,6.90
2022-10-17T03:51:06.377Z,7.45
2022-10-17T03:56:17.468Z,7.65
2022-10-17T04:01:24.331Z,7.28
2022-10-17T04:06:27.333Z,7.10
2022-10-17T04:11:30.174Z,7.47
2022-10-17T04:16:35.671Z,7.13
2022-10-17T04:21:45.105Z,7.38
2022-10-17T04:26:52.180Z,6.97
2022-10-17T04:31:56.672Z,7.35
2022-10-17T04:37:19.754Z,7.00
2022-10-17T04:42:24.899Z,7.78
2022-10-17T04:47:29.353Z,7.63
2022-10-17T04:52:35.330Z,7.90
2022-10-17T04:57:38.360Z,8.13
2022-10-17T05:02:55.774Z,8.10
2022-10-17T05:07:58.887Z,7.50
2022-10-17T05:13:06.184Z,8.00
2022-10-17T05:18:10.028Z,7.97
2022-10-17T05:23:13.244Z,10.17
2022-10-17T05:28:18.778Z,9.40
2022-10-17T05:33:22.806Z,6.78
2022-10-17T05:38:26.211Z,7.65
2022-10-17T05:43:29.241Z,7.30
2022-10-17T05:48:32.004Z,6.45
2022-10-17T05:53:36.475Z,8.50
2022-10-17T05:58:54.105Z,7.13
2022-10-17T06:04:14.573Z,7.43
2022-10-17T06:09:17.995Z,8.50
2022-10-17T06:14:23.788Z,8.77
2022-10-17T06:19:30.360Z,6.63
2022-10-17T06:24:33.143Z,6.57
2022-10-17T06:29:39.514Z,7.10
2022-10-17T06:34:42.546Z,7.10
2022-10-17T06:39:46.644Z,7.22
2022-10-17T06:44:52.934Z,6.20
2022-10-17T06:49:58.372Z,5.47
2022-10-17T06:55:07.056Z,5.10
2022-10-17T07:00:23.730Z,6.20
2022-10-17T07:05:30.036Z,6.53
2022-10-17T07:10:38.398Z,6.40
2022-10-17T07:15:43.322Z,8.50
2022-10-17T07:20:52.937Z,9.37
2022-10-17T07:26:02.994Z,10.07
2022-10-17T07:31:06.771Z,9.77
2022-10-17T07:36:10.064Z,9.07
2022-10-17T07:41:17.801Z,11.00
2022-10-17T07:46:24.259Z,11.17
2022-10-17T07:51:28.045Z,11.27
2022-10-17T07:56:30.788Z,13.17
2022-10-17T08:01:33.375Z,11.53
2022-10-17T08:21:45.274Z,5.75
2022-10-17T08:26:49.572Z,3.10
2022-10-17T08:31:58.661Z,5.80
2022-10-17T08:37:04.392Z,3.30
2022-10-17T08:42:07.240Z,3.27
2022-10-17T08:47:16.313Z,2.80
2022-10-17T08:52:25.792Z,2.60
2022-10-17T08:57:29.796Z,2.77
2022-10-17T09:02:48.619Z,2.80
2022-10-17T09:07:54.362Z,3.13
2022-10-17T09:12:56.922Z,3.40
2022-10-17T09:18:07.961Z,9.00
2022-10-17T09:23:11.165Z,2.77
2022-10-17T09:28:19.329Z,3.23
2022-10-17T09:33:35.237Z,3.80
2022-10-17T09:38:53.813Z,4.00
2022-10-17T09:43:57.295Z,3.83
2022-10-17T09:49:14.891Z,3.47
2022-10-17T09:54:26.653Z,4.37
2022-10-17T09:59:36.632Z,4.90
2022-10-17T10:05:03.881Z,4.30
2022-10-17T10:10:22.689Z,4.20
2022-10-17T10:15:33.646Z,4.90
2022-10-17T10:20:37.946Z,4.80
2022-10-17T10:25:54.733Z,5.97
2022-10-17T10:30:59.053Z,5.60
2022-10-17T10:36:03.646Z,13.93
2022-10-17T10:41:08.196Z,6.00
2022-10-17T10:46:40.644Z,5.90
2022-10-17T10:51:48.199Z,5.87
2022-10-17T10:56:53.641Z,6.07
2022-10-17T11:02:05.358Z,7.17
2022-10-17T11:07:13.278Z,7.00
2022-10-17T11:12:30.961Z,6.97
2022-10-17T11:17:33.682Z,7.30
2022-10-17T11:22:49.594Z,8.60
2022-10-17T11:27:52.106Z,9.37
2022-10-17T11:32:57.272Z,7.27
2022-10-17T11:38:18.856Z,7.30
2022-10-17T11:43:27.417Z,8.17
2022-10-17T11:48:34.373Z,9.50
2022-10-17T11:54:03.610Z,10.67
2022-10-17T11:59:18.669Z,9.67
2022-10-17T12:04:42.806Z,9.90
2022-10-17T12:09:58.788Z,9.27
2022-10-17T12:15:13.694Z,10.50
2022-10-17T12:20:25.977Z,12.50
2022-10-17T12:25:32.169Z,11.53
2022-10-17T12:30:34.896Z,11.95
2022-10-17T12:35:38.136Z,11.13
2022-10-17T12:40:48.523Z,10.13
2022-10-17T12:45:54.092Z,9.73
2022-10-17T12:51:30.871Z,10.10
2022-10-17T12:56:30.598Z,21.70
2022-10-17T13:01:34.840Z,9.73
2022-10-17T13:06:40.559Z,9.43
2022-10-17T13:11:43.393Z,10.37
2022-10-17T13:16:52.338Z,10.57
2022-10-17T13:21:59.732Z,11.00
2022-10-17T13:27:05.907Z,12.20
2022-10-17T13:32:09.924Z,12.23
2022-10-17T13:37:14.437Z,12.60
2022-10-17T13:42:24.930Z,11.70
2022-10-17T13:47:32.299Z,14.77
2022-10-17T13:57:37.460Z,9.67
2022-10-17T14:02:41.476Z,9.03
2022-10-17T14:08:09.854Z,9.70
2022-10-17T14:13:08.431Z,8.23
2022-10-17T14:18:17.409Z,8.93
2022-10-17T14:23:34.421Z,11.93
2022-10-17T14:28:37.518Z,9.73
2022-10-17T14:33:44.059Z,9.77
2022-10-17T14:38:50.374Z,10.90
2022-10-17T14:44:07.128Z,13.20
2022-10-17T14:49:23.254Z,10.23
2022-10-17T14:54:29.341Z,10.63
2022-10-17T14:59:59.762Z,11.47
2022-10-17T15:04:54.687Z,12.03
2022-10-17T15:09:57.374Z,17.83
2022-10-17T15:15:00.143Z,14.60
2022-10-17T15:20:02.701Z,14.00
2022-10-17T15:25:05.631Z,18.70
2022-10-17T15:30:20.689Z,15.53
2022-10-17T15:35:24.614Z,14.73
2022-10-17T15:40:29.270Z,15.97
2022-10-17T15:45:33.484Z,17.30
2022-10-17T15:50:36.157Z,30.37
2022-10-17T15:55:39.174Z,13.97
2022-10-17T16:00:42.445Z,14.43
2022-10-17T16:05:45.084Z,21.47
2022-10-17T16:10:50.622Z,15.47
2022-10-17T16:15:54.034Z,17.37
2022-10-17T16:20:56.871Z,25.67
2022-10-17T16:25:59.831Z,18.57
2022-10-17T16:31:02.474Z,19.43
2022-10-17T16:36:04.975Z,20.43
2022-10-17T16:41:20.649Z,21.47
2022-10-17T16:46:23.852Z,22.20
2022-10-17T16:51:26.907Z,22.33
2022-10-17T16:56:31.820Z,24.90
2022-10-17T17:01:35.078Z,27.13
2022-10-17T17:06:41.688Z,27.10
2022-10-17T17:11:45.237Z,24.40
2022-10-17T17:16:47.931Z,23.77
2022-10-17T17:21:51.164Z,24.70
2022-10-17T17:26:54.480Z,24.77
2022-10-17T17:31:57.414Z,26.67
2022-10-17T17:37:00.070Z,28.47
2022-10-17T17:42:02.805Z,35.47
2022-10-17T17:47:05.651Z,34.77
2022-10-17T17:52:08.804Z,29.80
2022-10-17T17:57:12.994Z,31.30
2022-10-17T18:02:17.040Z,27.60
2022-10-17T18:07:20.379Z,26.03
2022-10-17T18:12:23.560Z,29.53
2022-10-17T18:17:26.290Z,29.63
2022-10-17T18:22:29.488Z,25.03
2022-10-17T18:27:32.446Z,24.07
2022-10-17T18:32:35.700Z,27.30
2022-10-17T18:37:38.867Z,25.37
2022-10-17T18:42:44.434Z,24.60
2022-10-17T18:47:48.103Z,26.17
2022-10-17T18:52:51.182Z,23.70
2022-10-17T18:57:54.128Z,23.03
2022-10-17T19:02:57.113Z,19.70
2022-10-17T19:08:00.030Z,19.63
2022-10-17T19:13:03.110Z,17.23
2022-10-17T19:18:06.384Z,16.27
2022-10-17T19:23:09.469Z,16.87
2022-10-17T19:28:15.044Z,16.57
2022-10-17T19:33:18.067Z,17.00
2022-10-17T19:38:21.909Z,17.53
2022-10-17T19:43:25.365Z,17.53
2022-10-17T19:48:31.013Z,17.93
2022-10-17T19:53:34.445Z,16.53
2022-10-17T19:58:46.279Z,15.93
2022-10-17T20:03:49.248Z,16.37
2022-10-17T20:08:51.920Z,17.23
2022-10-17T20:13:55.540Z,16.60
2022-10-17T20:19:02.879Z,16.43
2022-10-17T20:24:06.612Z,16.20
2022-10-17T20:29:12.644Z,15.27
2022-10-17T20:34:16.514Z,15.40
2022-10-17T20:39:20.041Z,16.10
2022-10-17T20:44:22.875Z,14.53
2022-10-17T20:49:25.534Z,13.90
2022-10-17T20:54:28.720Z,14.07
2022-10-17T20:59:31.743Z,14.57
2022-10-17T21:04:46.492Z,14.10
2022-10-17T21:09:49.941Z,13.60
2022-10-17T21:14:52.386Z,13.00
2022-10-17T21:19:55.946Z,13.10
2022-10-17T21:24:58.341Z,12.90
2022-10-17T21:30:01.514Z,13.03
2022-10-17T21:35:05.020Z,13.33
2022-10-17T21:40:07.781Z,12.33
2022-10-17T21:45:15.968Z,12.60
2022-10-17T21:50:22.966Z,11.97
2022-10-17T21:55:25.443Z,12.13
2022-10-17T22:00:28.045Z,12.60
2022-10-17T22:05:31.060Z,11.30
2022-10-17T22:10:36.029Z,12.07
2022-10-17T22:15:38.652Z,11.90
2022-10-17T22:20:41.499Z,12.20
2022-10-17T22:25:44.070Z,12.17
2022-10-17T22:30:46.642Z,11.67
2022-10-17T22:35:50.109Z,11.57
2022-10-17T22:40:53.055Z,11.83
2022-10-17T22:46:02.185Z,10.77
2022-10-17T22:51:04.751Z,11.33
2022-10-17T22:56:11.745Z,10.77
2022-10-17T23:01:15.911Z,11.00
2022-10-17T23:06:19.133Z,10.90
2022-10-17T23:11:21.786Z,10.20
2022-10-17T23:16:24.393Z,9.80
2022-10-17T23:21:26.841Z,10.57
2022-10-17T23:26:29.506Z,10.20
2022-10-17T23:31:32.434Z,10.27
2022-10-17T23:36:35.070Z,10.00
2022-10-17T23:41:38.094Z,9.87
2022-10-17T23:46:40.856Z,8.60
2022-10-17T23:51:43.540Z,7.50
2022-10-17T23:56:46.135Z,7.47
